Pearl, Mississippi
Current Conditions -  °F | °C
As of 12:54 PM on Tuesday 21 Oct 2014 (Local Time) from KJAN Reporting Station
Clear Clear  
Wind Chill: 75°   Ceiling: Unl
Heat Index: 75°   Visibility: 10mi
Dew Point: 51°   Wind: 0mph
Humidity: 43%   Direction: NA
Pressure: 30.07"   Gusts: NA
Location:  32.2996°N, 90.1428°W
Report Text: KJAN 211754Z 00000KT 10SM CLR 24/11 A3007 RMK AO2 SLP179 T02390106 10244 20089 58012
Loading
Personal Weather Stations






























Interactive Weather Map
Tropical Storm Tracking
New forecast layout! Learn more

10-Day Weather Forecast

Advertisements
Track Severe Weather on mobile